sensor_id;sensor_type;location;lat;lon;timestamp;P1;durP1;ratioP1;P2;durP2;ratioP2
68168;SDS011;54981;50.206;15.978;2023-06-14T00:01:51;13.02;;;11.95;;
68168;SDS011;54981;50.206;15.978;2023-06-14T00:04:21;12.55;;;11.55;;
68168;SDS011;54981;50.206;15.978;2023-06-14T00:06:55;11.55;;;10.65;;
68168;SDS011;54981;50.206;15.978;2023-06-14T00:09:26;12.63;;;11.70;;
68168;SDS011;54981;50.206;15.978;2023-06-14T00:11:57;14.10;;;12.90;;
68168;SDS011;54981;50.206;15.978;2023-06-14T00:14:27;13.60;;;12.60;;
68168;SDS011;54981;50.206;15.978;2023-06-14T00:16:57;12.73;;;11.63;;
68168;SDS011;54981;50.206;15.978;2023-06-14T00:19:28;12.73;;;11.63;;
68168;SDS011;54981;50.206;15.978;2023-06-14T00:22:00;13.52;;;12.43;;
68168;SDS011;54981;50.206;15.978;2023-06-14T00:24:31;14.02;;;13.00;;
68168;SDS011;54981;50.206;15.978;2023-06-14T00:27:02;14.40;;;13.20;;
68168;SDS011;54981;50.206;15.978;2023-06-14T00:29:32;14.10;;;12.90;;
68168;SDS011;54981;50.206;15.978;2023-06-14T00:32:03;14.00;;;12.90;;
68168;SDS011;54981;50.206;15.978;2023-06-14T00:34:33;14.80;;;13.60;;
68168;SDS011;54981;50.206;15.978;2023-06-14T00:37:04;13.80;;;12.70;;
68168;SDS011;54981;50.206;15.978;2023-06-14T00:39:35;14.48;;;13.27;;
68168;SDS011;54981;50.206;15.978;2023-06-14T00:42:05;14.80;;;13.63;;
68168;SDS011;54981;50.206;15.978;2023-06-14T00:44:36;13.27;;;11.90;;
68168;SDS011;54981;50.206;15.978;2023-06-14T00:47:06;13.50;;;11.68;;
68168;SDS011;54981;50.206;15.978;2023-06-14T00:49:37;14.88;;;13.68;;
68168;SDS011;54981;50.206;15.978;2023-06-14T00:52:07;13.82;;;12.73;;
68168;SDS011;54981;50.206;15.978;2023-06-14T00:54:42;13.40;;;12.32;;
68168;SDS011;54981;50.206;15.978;2023-06-14T00:57:13;12.82;;;11.77;;
68168;SDS011;54981;50.206;15.978;2023-06-14T00:59:44;13.93;;;12.75;;
68168;SDS011;54981;50.206;15.978;2023-06-14T01:02:16;14.60;;;13.30;;
68168;SDS011;54981;50.206;15.978;2023-06-14T01:04:50;14.45;;;13.30;;
68168;SDS011;54981;50.206;15.978;2023-06-14T01:15:16;14.35;;;13.25;;
68168;SDS011;54981;50.206;15.978;2023-06-14T01:17:48;15.50;;;14.13;;
68168;SDS011;54981;50.206;15.978;2023-06-14T01:20:21;13.27;;;12.18;;
68168;SDS011;54981;50.206;15.978;2023-06-14T01:22:55;13.32;;;12.13;;
68168;SDS011;54981;50.206;15.978;2023-06-14T01:25:25;15.35;;;14.13;;
68168;SDS011;54981;50.206;15.978;2023-06-14T01:27:58;14.77;;;13.57;;
68168;SDS011;54981;50.206;15.978;2023-06-14T01:30:32;13.68;;;12.57;;
68168;SDS011;54981;50.206;15.978;2023-06-14T01:33:04;13.52;;;12.32;;
68168;SDS011;54981;50.206;15.978;2023-06-14T01:35:37;13.50;;;12.30;;
68168;SDS011;54981;50.206;15.978;2023-06-14T01:38:07;15.65;;;14.30;;
68168;SDS011;54981;50.206;15.978;2023-06-14T01:40:38;14.52;;;13.43;;
68168;SDS011;54981;50.206;15.978;2023-06-14T01:43:10;14.60;;;13.38;;
68168;SDS011;54981;50.206;15.978;2023-06-14T01:45:43;14.13;;;12.93;;
68168;SDS011;54981;50.206;15.978;2023-06-14T01:48:15;14.30;;;13.07;;
68168;SDS011;54981;50.206;15.978;2023-06-14T01:50:47;12.13;;;11.18;;
68168;SDS011;54981;50.206;15.978;2023-06-14T01:53:18;12.80;;;11.75;;
68168;SDS011;54981;50.206;15.978;2023-06-14T01:55:49;14.23;;;13.18;;
68168;SDS011;54981;50.206;15.978;2023-06-14T01:58:19;13.80;;;12.65;;
68168;SDS011;54981;50.206;15.978;2023-06-14T02:00:49;13.82;;;12.63;;
68168;SDS011;54981;50.206;15.978;2023-06-14T02:03:21;15.23;;;13.93;;
68168;SDS011;54981;50.206;15.978;2023-06-14T02:05:51;14.38;;;13.27;;
68168;SDS011;54981;50.206;15.978;2023-06-14T02:08:22;14.00;;;12.88;;
68168;SDS011;54981;50.206;15.978;2023-06-14T02:10:53;13.13;;;12.13;;
68168;SDS011;54981;50.206;15.978;2023-06-14T02:13:23;13.25;;;12.20;;
68168;SDS011;54981;50.206;15.978;2023-06-14T02:15:54;15.10;;;13.95;;
68168;SDS011;54981;50.206;15.978;2023-06-14T02:18:24;15.38;;;14.20;;
68168;SDS011;54981;50.206;15.978;2023-06-14T02:20:55;15.45;;;14.25;;
68168;SDS011;54981;50.206;15.978;2023-06-14T02:23:26;15.82;;;14.48;;
68168;SDS011;54981;50.206;15.978;2023-06-14T02:25:56;14.02;;;12.93;;
68168;SDS011;54981;50.206;15.978;2023-06-14T02:28:27;13.90;;;12.73;;
68168;SDS011;54981;50.206;15.978;2023-06-14T02:30:57;14.05;;;13.00;;
68168;SDS011;54981;50.206;15.978;2023-06-14T02:33:27;15.10;;;13.90;;
68168;SDS011;54981;50.206;15.978;2023-06-14T02:35:58;14.60;;;13.50;;
68168;SDS011;54981;50.206;15.978;2023-06-14T02:38:28;14.57;;;13.48;;
68168;SDS011;54981;50.206;15.978;2023-06-14T02:40:59;13.95;;;12.85;;
68168;SDS011;54981;50.206;15.978;2023-06-14T02:43:31;13.88;;;12.77;;
68168;SDS011;54981;50.206;15.978;2023-06-14T02:46:01;12.93;;;11.85;;
68168;SDS011;54981;50.206;15.978;2023-06-14T02:48:32;12.85;;;11.85;;
68168;SDS011;54981;50.206;15.978;2023-06-14T02:51:02;14.25;;;12.95;;
68168;SDS011;54981;50.206;15.978;2023-06-14T02:53:33;14.20;;;13.18;;
68168;SDS011;54981;50.206;15.978;2023-06-14T02:56:03;13.77;;;12.68;;
68168;SDS011;54981;50.206;15.978;2023-06-14T02:58:34;13.35;;;12.35;;
68168;SDS011;54981;50.206;15.978;2023-06-14T03:01:06;13.55;;;12.45;;
68168;SDS011;54981;50.206;15.978;2023-06-14T03:03:37;13.10;;;12.10;;
68168;SDS011;54981;50.206;15.978;2023-06-14T03:06:08;14.20;;;13.10;;
68168;SDS011;54981;50.206;15.978;2023-06-14T03:08:40;14.77;;;13.57;;
68168;SDS011;54981;50.206;15.978;2023-06-14T03:11:11;13.35;;;12.25;;
68168;SDS011;54981;50.206;15.978;2023-06-14T03:13:42;14.00;;;12.90;;
68168;SDS011;54981;50.206;15.978;2023-06-14T03:16:13;14.23;;;13.02;;
68168;SDS011;54981;50.206;15.978;2023-06-14T03:18:44;13.98;;;12.77;;
68168;SDS011;54981;50.206;15.978;2023-06-14T03:21:15;14.00;;;12.80;;
68168;SDS011;54981;50.206;15.978;2023-06-14T03:23:46;13.57;;;12.48;;
68168;SDS011;54981;50.206;15.978;2023-06-14T03:26:17;14.23;;;13.05;;
68168;SDS011;54981;50.206;15.978;2023-06-14T03:28:47;15.85;;;14.55;;
68168;SDS011;54981;50.206;15.978;2023-06-14T03:31:21;14.90;;;13.60;;
68168;SDS011;54981;50.206;15.978;2023-06-14T03:33:52;14.48;;;13.18;;
68168;SDS011;54981;50.206;15.978;2023-06-14T03:36:22;13.63;;;12.55;;
68168;SDS011;54981;50.206;15.978;2023-06-14T03:38:53;13.23;;;12.13;;
68168;SDS011;54981;50.206;15.978;2023-06-14T03:41:25;12.35;;;11.40;;
68168;SDS011;54981;50.206;15.978;2023-06-14T03:43:56;12.88;;;11.80;;
68168;SDS011;54981;50.206;15.978;2023-06-14T03:46:26;14.32;;;13.02;;
68168;SDS011;54981;50.206;15.978;2023-06-14T03:48:56;12.95;;;11.95;;
68168;SDS011;54981;50.206;15.978;2023-06-14T03:51:27;13.30;;;12.30;;
68168;SDS011;54981;50.206;15.978;2023-06-14T03:53:58;14.35;;;13.35;;
68168;SDS011;54981;50.206;15.978;2023-06-14T03:56:28;14.23;;;13.13;;
68168;SDS011;54981;50.206;15.978;2023-06-14T03:58:59;15.25;;;13.95;;
68168;SDS011;54981;50.206;15.978;2023-06-14T04:01:30;15.60;;;14.30;;
68168;SDS011;54981;50.206;15.978;2023-06-14T04:04:01;16.55;;;15.15;;
68168;SDS011;54981;50.206;15.978;2023-06-14T04:06:32;16.67;;;15.38;;
68168;SDS011;54981;50.206;15.978;2023-06-14T04:09:02;16.23;;;14.93;;
68168;SDS011;54981;50.206;15.978;2023-06-14T04:11:33;15.85;;;14.57;;
68168;SDS011;54981;50.206;15.978;2023-06-14T04:14:03;15.57;;;14.25;;
68168;SDS011;54981;50.206;15.978;2023-06-14T04:16:34;14.40;;;13.20;;
68168;SDS011;54981;50.206;15.978;2023-06-14T04:19:04;14.35;;;13.02;;
68168;SDS011;54981;50.206;15.978;2023-06-14T04:21:34;15.35;;;13.98;;
68168;SDS011;54981;50.206;15.978;2023-06-14T04:24:05;14.95;;;13.65;;
68168;SDS011;54981;50.206;15.978;2023-06-14T04:26:36;14.57;;;13.38;;
68168;SDS011;54981;50.206;15.978;2023-06-14T04:29:07;15.50;;;14.30;;
68168;SDS011;54981;50.206;15.978;2023-06-14T04:31:37;14.50;;;13.30;;
68168;SDS011;54981;50.206;15.978;2023-06-14T04:34:08;15.18;;;13.63;;
68168;SDS011;54981;50.206;15.978;2023-06-14T04:36:43;15.60;;;14.30;;
68168;SDS011;54981;50.206;15.978;2023-06-14T04:39:19;16.15;;;13.60;;
68168;SDS011;54981;50.206;15.978;2023-06-14T04:41:53;15.60;;;14.20;;
68168;SDS011;54981;50.206;15.978;2023-06-14T04:44:26;15.30;;;13.82;;
68168;SDS011;54981;50.206;15.978;2023-06-14T04:46:59;15.00;;;13.43;;
68168;SDS011;54981;50.206;15.978;2023-06-14T04:49:30;14.55;;;13.20;;
68168;SDS011;54981;50.206;15.978;2023-06-14T04:52:02;15.73;;;14.32;;
68168;SDS011;54981;50.206;15.978;2023-06-14T04:54:33;12.70;;;11.55;;
68168;SDS011;54981;50.206;15.978;2023-06-14T04:57:04;13.80;;;12.60;;
68168;SDS011;54981;50.206;15.978;2023-06-14T04:59:35;14.00;;;12.80;;
68168;SDS011;54981;50.206;15.978;2023-06-14T05:02:06;14.02;;;12.63;;
68168;SDS011;54981;50.206;15.978;2023-06-14T05:04:37;13.50;;;12.30;;
68168;SDS011;54981;50.206;15.978;2023-06-14T05:07:11;14.27;;;12.77;;
68168;SDS011;54981;50.206;15.978;2023-06-14T05:09:42;11.85;;;10.75;;
68168;SDS011;54981;50.206;15.978;2023-06-14T05:12:13;12.50;;;11.30;;
68168;SDS011;54981;50.206;15.978;2023-06-14T05:14:44;11.93;;;10.65;;
68168;SDS011;54981;50.206;15.978;2023-06-14T05:17:15;12.65;;;11.35;;
68168;SDS011;54981;50.206;15.978;2023-06-14T05:19:46;11.93;;;10.73;;
68168;SDS011;54981;50.206;15.978;2023-06-14T05:22:17;12.68;;;11.38;;
68168;SDS011;54981;50.206;15.978;2023-06-14T05:24:47;11.85;;;10.82;;
68168;SDS011;54981;50.206;15.978;2023-06-14T05:27:18;12.05;;;10.95;;
68168;SDS011;54981;50.206;15.978;2023-06-14T05:29:48;12.13;;;11.00;;
68168;SDS011;54981;50.206;15.978;2023-06-14T05:32:20;11.80;;;10.70;;
68168;SDS011;54981;50.206;15.978;2023-06-14T05:34:50;10.65;;;9.65;;
68168;SDS011;54981;50.206;15.978;2023-06-14T05:37:21;11.32;;;10.23;;
68168;SDS011;54981;50.206;15.978;2023-06-14T05:39:51;10.70;;;9.63;;
68168;SDS011;54981;50.206;15.978;2023-06-14T05:42:21;11.88;;;10.70;;
68168;SDS011;54981;50.206;15.978;2023-06-14T05:44:52;11.68;;;10.57;;
68168;SDS011;54981;50.206;15.978;2023-06-14T05:47:22;11.30;;;10.20;;
68168;SDS011;54981;50.206;15.978;2023-06-14T05:49:55;12.02;;;10.07;;
68168;SDS011;54981;50.206;15.978;2023-06-14T05:52:26;9.68;;;8.77;;
68168;SDS011;54981;50.206;15.978;2023-06-14T05:54:58;10.55;;;9.48;;
68168;SDS011;54981;50.206;15.978;2023-06-14T05:57:28;9.45;;;8.45;;
68168;SDS011;54981;50.206;15.978;2023-06-14T05:59:59;10.02;;;8.90;;
68168;SDS011;54981;50.206;15.978;2023-06-14T06:02:29;9.93;;;8.88;;
68168;SDS011;54981;50.206;15.978;2023-06-14T06:05:00;13.50;;;8.27;;
68168;SDS011;54981;50.206;15.978;2023-06-14T06:07:30;10.32;;;9.43;;
68168;SDS011;54981;50.206;15.978;2023-06-14T06:10:00;9.25;;;8.43;;
68168;SDS011;54981;50.206;15.978;2023-06-14T06:12:31;10.65;;;7.57;;
68168;SDS011;54981;50.206;15.978;2023-06-14T06:15:02;9.10;;;8.30;;
68168;SDS011;54981;50.206;15.978;2023-06-14T06:17:34;9.32;;;7.63;;
68168;SDS011;54981;50.206;15.978;2023-06-14T06:20:05;8.55;;;7.63;;
68168;SDS011;54981;50.206;15.978;2023-06-14T06:22:38;9.20;;;8.30;;
68168;SDS011;54981;50.206;15.978;2023-06-14T06:25:09;8.70;;;7.90;;
68168;SDS011;54981;50.206;15.978;2023-06-14T06:27:39;8.73;;;7.93;;
68168;SDS011;54981;50.206;15.978;2023-06-14T06:30:10;9.65;;;8.68;;
68168;SDS011;54981;50.206;15.978;2023-06-14T06:32:41;9.27;;;8.27;;
68168;SDS011;54981;50.206;15.978;2023-06-14T06:35:11;8.10;;;7.38;;
68168;SDS011;54981;50.206;15.978;2023-06-14T06:37:45;8.32;;;7.43;;
68168;SDS011;54981;50.206;15.978;2023-06-14T06:40:15;8.13;;;7.28;;
68168;SDS011;54981;50.206;15.978;2023-06-14T06:42:46;8.32;;;7.35;;
68168;SDS011;54981;50.206;15.978;2023-06-14T06:45:17;7.90;;;7.03;;
68168;SDS011;54981;50.206;15.978;2023-06-14T06:47:47;9.77;;;7.88;;
68168;SDS011;54981;50.206;15.978;2023-06-14T06:50:17;7.95;;;7.18;;
68168;SDS011;54981;50.206;15.978;2023-06-14T06:52:48;8.43;;;7.63;;
68168;SDS011;54981;50.206;15.978;2023-06-14T06:55:19;8.82;;;7.25;;
68168;SDS011;54981;50.206;15.978;2023-06-14T06:57:49;8.50;;;7.43;;
68168;SDS011;54981;50.206;15.978;2023-06-14T07:00:21;8.23;;;7.20;;
68168;SDS011;54981;50.206;15.978;2023-06-14T07:02:52;8.50;;;7.68;;
68168;SDS011;54981;50.206;15.978;2023-06-14T07:05:24;8.07;;;7.38;;
68168;SDS011;54981;50.206;15.978;2023-06-14T07:07:56;9.13;;;7.88;;
68168;SDS011;54981;50.206;15.978;2023-06-14T07:10:26;9.32;;;7.70;;
68168;SDS011;54981;50.206;15.978;2023-06-14T07:12:56;9.75;;;7.95;;
68168;SDS011;54981;50.206;15.978;2023-06-14T07:15:27;9.38;;;8.32;;
68168;SDS011;54981;50.206;15.978;2023-06-14T07:17:57;10.10;;;8.18;;
68168;SDS011;54981;50.206;15.978;2023-06-14T07:20:29;8.75;;;7.85;;
68168;SDS011;54981;50.206;15.978;2023-06-14T07:23:00;10.02;;;8.82;;
68168;SDS011;54981;50.206;15.978;2023-06-14T07:25:31;10.55;;;8.90;;
68168;SDS011;54981;50.206;15.978;2023-06-14T07:28:01;10.02;;;8.60;;
68168;SDS011;54981;50.206;15.978;2023-06-14T07:30:32;9.07;;;7.53;;
68168;SDS011;54981;50.206;15.978;2023-06-14T07:33:02;8.90;;;7.45;;
68168;SDS011;54981;50.206;15.978;2023-06-14T07:35:33;8.45;;;7.55;;
68168;SDS011;54981;50.206;15.978;2023-06-14T07:38:03;8.52;;;7.47;;
68168;SDS011;54981;50.206;15.978;2023-06-14T07:40:33;7.93;;;7.03;;
68168;SDS011;54981;50.206;15.978;2023-06-14T07:43:04;8.63;;;7.57;;
68168;SDS011;54981;50.206;15.978;2023-06-14T07:45:34;9.15;;;7.53;;
68168;SDS011;54981;50.206;15.978;2023-06-14T07:48:05;7.78;;;6.97;;
68168;SDS011;54981;50.206;15.978;2023-06-14T07:50:35;7.40;;;6.63;;
68168;SDS011;54981;50.206;15.978;2023-06-14T07:53:06;8.30;;;6.05;;
68168;SDS011;54981;50.206;15.978;2023-06-14T07:55:36;8.25;;;7.22;;
68168;SDS011;54981;50.206;15.978;2023-06-14T07:58:07;7.55;;;6.63;;
68168;SDS011;54981;50.206;15.978;2023-06-14T08:00:37;8.45;;;6.28;;
68168;SDS011;54981;50.206;15.978;2023-06-14T08:03:07;7.63;;;6.75;;
68168;SDS011;54981;50.206;15.978;2023-06-14T08:05:38;7.75;;;6.68;;
68168;SDS011;54981;50.206;15.978;2023-06-14T08:08:08;8.32;;;7.53;;
68168;SDS011;54981;50.206;15.978;2023-06-14T08:10:39;8.70;;;7.82;;
68168;SDS011;54981;50.206;15.978;2023-06-14T08:13:09;8.55;;;6.75;;
68168;SDS011;54981;50.206;15.978;2023-06-14T08:15:40;9.55;;;7.50;;
68168;SDS011;54981;50.206;15.978;2023-06-14T08:18:10;9.05;;;6.95;;
68168;SDS011;54981;50.206;15.978;2023-06-14T08:20:40;7.40;;;6.70;;
68168;SDS011;54981;50.206;15.978;2023-06-14T08:23:11;7.72;;;7.03;;
68168;SDS011;54981;50.206;15.978;2023-06-14T08:25:41;8.32;;;7.53;;
68168;SDS011;54981;50.206;15.978;2023-06-14T08:28:12;7.63;;;6.93;;
68168;SDS011;54981;50.206;15.978;2023-06-14T08:30:42;7.68;;;6.88;;
68168;SDS011;54981;50.206;15.978;2023-06-14T08:33:13;8.35;;;7.03;;
68168;SDS011;54981;50.206;15.978;2023-06-14T08:35:43;7.15;;;6.45;;
68168;SDS011;54981;50.206;15.978;2023-06-14T08:38:14;7.65;;;6.95;;
68168;SDS011;54981;50.206;15.978;2023-06-14T08:40:45;8.07;;;7.10;;
68168;SDS011;54981;50.206;15.978;2023-06-14T08:43:20;7.18;;;6.47;;
68168;SDS011;54981;50.206;15.978;2023-06-14T08:45:52;7.32;;;6.63;;
68168;SDS011;54981;50.206;15.978;2023-06-14T08:48:28;7.25;;;6.55;;
68168;SDS011;54981;50.206;15.978;2023-06-14T08:50:59;9.25;;;8.15;;
68168;SDS011;54981;50.206;15.978;2023-06-14T08:53:33;8.45;;;7.65;;
68168;SDS011;54981;50.206;15.978;2023-06-14T08:56:06;8.23;;;7.43;;
68168;SDS011;54981;50.206;15.978;2023-06-14T08:58:37;8.75;;;7.68;;
68168;SDS011;54981;50.206;15.978;2023-06-14T09:01:13;8.15;;;6.70;;
68168;SDS011;54981;50.206;15.978;2023-06-14T09:03:44;7.50;;;6.82;;
68168;SDS011;54981;50.206;15.978;2023-06-14T09:06:15;7.70;;;7.00;;
68168;SDS011;54981;50.206;15.978;2023-06-14T09:08:48;7.90;;;7.17;;
68168;SDS011;54981;50.206;15.978;2023-06-14T09:11:24;7.07;;;6.30;;
68168;SDS011;54981;50.206;15.978;2023-06-14T09:13:56;10.10;;;7.18;;
68168;SDS011;54981;50.206;15.978;2023-06-14T09:16:27;7.22;;;6.53;;
68168;SDS011;54981;50.206;15.978;2023-06-14T09:18:57;7.65;;;6.95;;
68168;SDS011;54981;50.206;15.978;2023-06-14T09:21:27;8.05;;;7.30;;
68168;SDS011;54981;50.206;15.978;2023-06-14T09:24:03;7.25;;;6.55;;
68168;SDS011;54981;50.206;15.978;2023-06-14T09:26:35;9.10;;;5.90;;
68168;SDS011;54981;50.206;15.978;2023-06-14T09:29:09;9.88;;;7.20;;
68168;SDS011;54981;50.206;15.978;2023-06-14T09:31:39;6.43;;;5.72;;
68168;SDS011;54981;50.206;15.978;2023-06-14T09:34:10;7.00;;;6.30;;
68168;SDS011;54981;50.206;15.978;2023-06-14T09:36:41;7.30;;;6.57;;
68168;SDS011;54981;50.206;15.978;2023-06-14T09:39:16;7.47;;;6.78;;
68168;SDS011;54981;50.206;15.978;2023-06-14T09:41:47;8.27;;;7.47;;
68168;SDS011;54981;50.206;15.978;2023-06-14T09:44:18;9.35;;;8.32;;
68168;SDS011;54981;50.206;15.978;2023-06-14T09:46:50;8.68;;;7.78;;
68168;SDS011;54981;50.206;15.978;2023-06-14T09:49:21;10.35;;;8.82;;
68168;SDS011;54981;50.206;15.978;2023-06-14T09:51:55;10.13;;;9.13;;
68168;SDS011;54981;50.206;15.978;2023-06-14T09:54:27;11.00;;;9.52;;
68168;SDS011;54981;50.206;15.978;2023-06-14T09:56:59;12.10;;;10.80;;
68168;SDS011;54981;50.206;15.978;2023-06-14T09:59:32;13.10;;;11.85;;
68168;SDS011;54981;50.206;15.978;2023-06-14T10:02:06;13.65;;;12.35;;
68168;SDS011;54981;50.206;15.978;2023-06-14T10:04:42;13.02;;;11.82;;
68168;SDS011;54981;50.206;15.978;2023-06-14T10:07:18;13.13;;;11.85;;
68168;SDS011;54981;50.206;15.978;2023-06-14T10:09:50;13.35;;;12.05;;
68168;SDS011;54981;50.206;15.978;2023-06-14T10:12:22;13.77;;;12.43;;
68168;SDS011;54981;50.206;15.978;2023-06-14T10:14:54;12.85;;;11.55;;
68168;SDS011;54981;50.206;15.978;2023-06-14T10:22:58;15.85;;;14.35;;
68168;SDS011;54981;50.206;15.978;2023-06-14T10:25:33;15.55;;;14.10;;
68168;SDS011;54981;50.206;15.978;2023-06-14T10:31:05;15.30;;;13.80;;
68168;SDS011;54981;50.206;15.978;2023-06-14T10:33:55;16.05;;;14.35;;
68168;SDS011;54981;50.206;15.978;2023-06-14T10:36:28;15.07;;;13.68;;
68168;SDS011;54981;50.206;15.978;2023-06-14T10:41:40;16.52;;;14.93;;
68168;SDS011;54981;50.206;15.978;2023-06-14T10:46:54;17.75;;;15.82;;
68168;SDS011;54981;50.206;15.978;2023-06-14T10:52:12;18.00;;;16.35;;
68168;SDS011;54981;50.206;15.978;2023-06-14T10:57:36;17.73;;;15.98;;
68168;SDS011;54981;50.206;15.978;2023-06-14T11:00:09;17.63;;;15.82;;
68168;SDS011;54981;50.206;15.978;2023-06-14T11:05:28;18.25;;;16.48;;
68168;SDS011;54981;50.206;15.978;2023-06-14T11:10:41;17.10;;;15.43;;
68168;SDS011;54981;50.206;15.978;2023-06-14T11:13:18;17.35;;;15.65;;
68168;SDS011;54981;50.206;15.978;2023-06-14T11:15:48;16.77;;;15.25;;
68168;SDS011;54981;50.206;15.978;2023-06-14T11:18:22;16.98;;;15.38;;
68168;SDS011;54981;50.206;15.978;2023-06-14T11:20:57;17.33;;;15.63;;
68168;SDS011;54981;50.206;15.978;2023-06-14T11:23:27;17.60;;;15.82;;
68168;SDS011;54981;50.206;15.978;2023-06-14T11:25:58;15.93;;;14.43;;
68168;SDS011;54981;50.206;15.978;2023-06-14T11:28:41;16.45;;;14.85;;
68168;SDS011;54981;50.206;15.978;2023-06-14T11:31:11;14.43;;;13.02;;
68168;SDS011;54981;50.206;15.978;2023-06-14T11:33:41;13.07;;;11.70;;
68168;SDS011;54981;50.206;15.978;2023-06-14T11:36:12;12.05;;;10.93;;
68168;SDS011;54981;50.206;15.978;2023-06-14T11:38:42;14.82;;;13.45;;
68168;SDS011;54981;50.206;15.978;2023-06-14T11:41:13;13.73;;;12.43;;
68168;SDS011;54981;50.206;15.978;2023-06-14T11:43:44;14.35;;;12.93;;
68168;SDS011;54981;50.206;15.978;2023-06-14T11:46:14;14.30;;;12.90;;
68168;SDS011;54981;50.206;15.978;2023-06-14T11:48:52;14.32;;;12.95;;
68168;SDS011;54981;50.206;15.978;2023-06-14T11:51:23;13.93;;;12.63;;
68168;SDS011;54981;50.206;15.978;2023-06-14T11:53:53;14.55;;;13.15;;
68168;SDS011;54981;50.206;15.978;2023-06-14T11:56:24;13.40;;;11.75;;
68168;SDS011;54981;50.206;15.978;2023-06-14T11:58:56;13.45;;;12.15;;
68168;SDS011;54981;50.206;15.978;2023-06-14T12:01:29;12.73;;;11.52;;
68168;SDS011;54981;50.206;15.978;2023-06-14T12:04:01;13.95;;;12.55;;
68168;SDS011;54981;50.206;15.978;2023-06-14T12:06:34;13.63;;;11.25;;
68168;SDS011;54981;50.206;15.978;2023-06-14T12:09:09;13.93;;;10.50;;
68168;SDS011;54981;50.206;15.978;2023-06-14T12:11:48;10.40;;;8.93;;
68168;SDS011;54981;50.206;15.978;2023-06-14T12:14:18;11.10;;;10.10;;
68168;SDS011;54981;50.206;15.978;2023-06-14T12:16:49;10.98;;;9.38;;
68168;SDS011;54981;50.206;15.978;2023-06-14T12:19:19;8.70;;;7.90;;
68168;SDS011;54981;50.206;15.978;2023-06-14T12:21:50;10.05;;;8.48;;
68168;SDS011;54981;50.206;15.978;2023-06-14T12:24:21;10.27;;;9.10;;
68168;SDS011;54981;50.206;15.978;2023-06-14T12:26:51;10.18;;;9.18;;
68168;SDS011;54981;50.206;15.978;2023-06-14T12:29:23;8.90;;;7.97;;
68168;SDS011;54981;50.206;15.978;2023-06-14T12:31:54;8.40;;;7.60;;
68168;SDS011;54981;50.206;15.978;2023-06-14T12:34:27;8.27;;;7.15;;
68168;SDS011;54981;50.206;15.978;2023-06-14T12:36:59;8.20;;;7.40;;
68168;SDS011;54981;50.206;15.978;2023-06-14T12:39:30;7.50;;;6.80;;
68168;SDS011;54981;50.206;15.978;2023-06-14T12:42:04;8.50;;;7.70;;
68168;SDS011;54981;50.206;15.978;2023-06-14T12:44:35;9.05;;;8.13;;
68168;SDS011;54981;50.206;15.978;2023-06-14T12:47:10;8.93;;;7.95;;
68168;SDS011;54981;50.206;15.978;2023-06-14T12:49:40;7.80;;;7.00;;
68168;SDS011;54981;50.206;15.978;2023-06-14T12:52:11;8.88;;;7.05;;
68168;SDS011;54981;50.206;15.978;2023-06-14T12:54:42;8.82;;;7.93;;
68168;SDS011;54981;50.206;15.978;2023-06-14T12:57:12;7.22;;;6.50;;
68168;SDS011;54981;50.206;15.978;2023-06-14T12:59:43;7.65;;;6.95;;
68168;SDS011;54981;50.206;15.978;2023-06-14T13:02:14;7.57;;;6.88;;
68168;SDS011;54981;50.206;15.978;2023-06-14T13:04:46;8.23;;;7.43;;
68168;SDS011;54981;50.206;15.978;2023-06-14T13:07:17;10.13;;;7.80;;
68168;SDS011;54981;50.206;15.978;2023-06-14T13:09:48;8.43;;;7.60;;
68168;SDS011;54981;50.206;15.978;2023-06-14T13:12:21;8.57;;;7.78;;
68168;SDS011;54981;50.206;15.978;2023-06-14T13:14:52;9.93;;;7.25;;
68168;SDS011;54981;50.206;15.978;2023-06-14T13:17:22;7.75;;;7.05;;
68168;SDS011;54981;50.206;15.978;2023-06-14T13:19:52;9.15;;;7.45;;
68168;SDS011;54981;50.206;15.978;2023-06-14T13:22:24;7.38;;;6.68;;
68168;SDS011;54981;50.206;15.978;2023-06-14T13:24:55;7.53;;;6.72;;
68168;SDS011;54981;50.206;15.978;2023-06-14T13:27:27;8.05;;;7.25;;
68168;SDS011;54981;50.206;15.978;2023-06-14T13:29:57;7.85;;;6.85;;
68168;SDS011;54981;50.206;15.978;2023-06-14T13:32:28;7.40;;;6.70;;
68168;SDS011;54981;50.206;15.978;2023-06-14T13:34:59;6.90;;;6.20;;
68168;SDS011;54981;50.206;15.978;2023-06-14T13:37:30;6.05;;;5.45;;
68168;SDS011;54981;50.206;15.978;2023-06-14T13:40:00;6.13;;;5.63;;
68168;SDS011;54981;50.206;15.978;2023-06-14T13:42:31;7.13;;;5.65;;
68168;SDS011;54981;50.206;15.978;2023-06-14T13:45:02;5.88;;;5.28;;
68168;SDS011;54981;50.206;15.978;2023-06-14T13:47:34;6.88;;;6.18;;
68168;SDS011;54981;50.206;15.978;2023-06-14T13:50:04;7.30;;;6.38;;
68168;SDS011;54981;50.206;15.978;2023-06-14T13:52:35;7.20;;;6.45;;
68168;SDS011;54981;50.206;15.978;2023-06-14T13:55:06;7.63;;;6.32;;
68168;SDS011;54981;50.206;15.978;2023-06-14T13:57:36;7.15;;;6.45;;
68168;SDS011;54981;50.206;15.978;2023-06-14T14:00:07;7.20;;;6.50;;
68168;SDS011;54981;50.206;15.978;2023-06-14T14:02:38;8.45;;;7.50;;
68168;SDS011;54981;50.206;15.978;2023-06-14T14:05:11;7.93;;;7.13;;
68168;SDS011;54981;50.206;15.978;2023-06-14T14:07:41;8.23;;;7.28;;
68168;SDS011;54981;50.206;15.978;2023-06-14T14:10:12;7.85;;;6.97;;
68168;SDS011;54981;50.206;15.978;2023-06-14T14:12:44;9.15;;;8.25;;
68168;SDS011;54981;50.206;15.978;2023-06-14T14:15:18;9.95;;;8.95;;
68168;SDS011;54981;50.206;15.978;2023-06-14T14:17:49;9.77;;;8.77;;
68168;SDS011;54981;50.206;15.978;2023-06-14T14:20:20;8.82;;;8.02;;
68168;SDS011;54981;50.206;15.978;2023-06-14T14:22:53;8.75;;;7.68;;
68168;SDS011;54981;50.206;15.978;2023-06-14T14:25:23;9.27;;;8.23;;
68168;SDS011;54981;50.206;15.978;2023-06-14T14:27:54;9.38;;;8.45;;
68168;SDS011;54981;50.206;15.978;2023-06-14T14:30:24;10.25;;;7.38;;
68168;SDS011;54981;50.206;15.978;2023-06-14T14:32:55;8.73;;;7.82;;
68168;SDS011;54981;50.206;15.978;2023-06-14T14:35:26;8.68;;;7.88;;
68168;SDS011;54981;50.206;15.978;2023-06-14T14:38:00;8.70;;;7.88;;
68168;SDS011;54981;50.206;15.978;2023-06-14T14:40:30;9.02;;;8.13;;
68168;SDS011;54981;50.206;15.978;2023-06-14T14:43:01;8.80;;;7.95;;
68168;SDS011;54981;50.206;15.978;2023-06-14T14:45:31;9.32;;;8.32;;
68168;SDS011;54981;50.206;15.978;2023-06-14T14:48:02;8.70;;;7.85;;
68168;SDS011;54981;50.206;15.978;2023-06-14T14:50:33;8.40;;;7.60;;
68168;SDS011;54981;50.206;15.978;2023-06-14T14:53:03;8.32;;;7.53;;
68168;SDS011;54981;50.206;15.978;2023-06-14T14:55:35;8.48;;;7.68;;
68168;SDS011;54981;50.206;15.978;2023-06-14T14:58:07;11.43;;;8.88;;
68168;SDS011;54981;50.206;15.978;2023-06-14T15:00:38;9.80;;;8.90;;
68168;SDS011;54981;50.206;15.978;2023-06-14T15:03:09;9.23;;;8.23;;
68168;SDS011;54981;50.206;15.978;2023-06-14T15:05:39;9.80;;;8.90;;
68168;SDS011;54981;50.206;15.978;2023-06-14T15:08:10;10.57;;;9.57;;
68168;SDS011;54981;50.206;15.978;2023-06-14T15:10:41;10.13;;;9.13;;
68168;SDS011;54981;50.206;15.978;2023-06-14T15:13:13;9.63;;;8.73;;
68168;SDS011;54981;50.206;15.978;2023-06-14T15:15:43;9.75;;;8.85;;
68168;SDS011;54981;50.206;15.978;2023-06-14T15:18:13;8.57;;;7.78;;